首页
METAR-TAF:

METAR-TAF

机场 :

克里斯蒂亚诺·罗纳尔多机场

丰沙尔, 馬德拉群岛, 葡萄牙

纬度: 32-41-52N, 经度: 016-46-28W, 海拔: 59米

当前天气观测

该预报发布于17分钟前的20:00 UTC
风速3节,风向西北,在西转西南北转西北之间变化
温度 16°C
湿度 77%
气压 1015 hPa
能见度10公里或以上
少量云层高于1600英尺
散云层高于3000英尺

METAR: LPMA 142000Z 31003KT 240V340 9999 FEW016 SCT030 16/12 Q1015

时间: 20:17 (20:17 UTC)

预报

该预报发布于3小时和17分钟前的17:00 UTC
预报有效从14日的 18点(UTC)到 15日的 18点(UTC)
风速5节,风向多变
能见度10公里或以上
散云层高于1500英尺
成为
从 14日的 19点(UTC)到 14日的 22点(UTC)
风速15节,风向西南
散云层高于1500英尺
多云层高于3000英尺
短暂存在
从 14日的 22点(UTC)到 15日的 01点(UTC)
风速20节,风向西南,有时为30节阵风
能見度: 3000
散云层高于600英尺
多云层高于1300英尺
少量云层高于2000英尺, 塔状积云.
雨, 毛毛雨
几率 30% :
短暂存在
从 14日的 23点(UTC)到 15日的 01点(UTC)
风速25节,风向西南,有时为35节阵风
能見度: 2000
散云层高于500英尺
多云层高于1000英尺
少量云层高于1800英尺, 积雨云.
大雨, 毛毛雨, 轻雾
成为
从 15日的 01点(UTC)到 15日的 03点(UTC)
风速15节,风向北转西北
散云层高于1500英尺
短暂存在
从 15日的 01点(UTC)到 15日的 18点(UTC)
风速18节,风向北转西北,有时为33节阵风
能見度: 8000
多云层高于1500英尺
少量云层高于2000英尺, 积雨云.
阵雨
几率 30% :
短暂存在
从 15日的 10点(UTC)到 15日的 18点(UTC)
能見度: 3000
散云层高于1800英尺, 积雨云.
雷暴, 雨

TAF: LPMA 141700Z 1418/1518 VRB05KT 9999 SCT015 BECMG 1419/1422 23015KT SCT015 BKN030 TEMPO 1422/1501 23020G30KT 3000 RADZ SCT006 BKN013 FEW020TCU PROB30 TEMPO 1423/1501 23025G35KT 2000 +RADZ BR SCT005 BKN010 FEW018CB BECMG 1501/1503 33015KT SCT015 TEMPO 1501/1518 34018G33KT 8000 SHRA BKN015 FEW020CB PROB30 TEMPO 1510/1518 3000 TSRA SCT018CB

超过4000个机场的气象观测和天气预报(METAR&TAF报告)。

可查询的气象台以黄色和红色小点在地图上表示。

将鼠标移到小点上方,可查看气象台名称。

然后点击查看天气观测和预报。

如需切换地图:点击带黑十字的绿色按钮放大地图;点击带横线的绿色按钮缩小地图;或者点击绿色箭头查看邻近地区的地图。


METAR-TAF: